Time;durP1;ratioP1;P1;durP2;ratioP2;P2;SDS_P1;SDS_P2;PMS_P1;PMS_P2;Temp;Humidity;BMP_temperature;BMP_pressure;BME280_temperature;BME280_humidity;BME280_pressure;Samples;Min_cycle;Max_cycle;Signal;HPM_P1;HPM_P2
2023/09/22 00:00:14;;;;;;;10.10;7.82;;;;;;;13.46;100.00;99776.59;5095474;28;20028;-60
2023/09/22 00:02:42;;;;;;;12.75;8.02;;;;;;;13.46;100.00;99787.22;5095681;28;20064;-61
2023/09/22 00:05:09;;;;;;;11.90;7.90;;;;;;;13.35;100.00;99779.44;5095663;28;20066;-62
2023/09/22 00:07:35;;;;;;;9.77;7.68;;;;;;;13.37;100.00;99780.31;5094023;28;20412;-60
2023/09/22 00:10:01;;;;;;;14.80;8.13;;;;;;;13.31;100.00;99777.75;5095234;28;20111;-61
2023/09/22 00:12:29;;;;;;;11.13;8.43;;;;;;;13.23;100.00;99777.91;5095386;28;20058;-61
2023/09/22 00:14:54;;;;;;;10.32;6.95;;;;;;;13.16;100.00;99780.63;5094785;28;20051;-60
2023/09/22 00:17:20;;;;;;;10.95;7.10;;;;;;;13.16;100.00;99788.59;5095077;28;20397;-63
2023/09/22 00:19:45;;;;;;;13.07;7.38;;;;;;;13.11;100.00;99779.84;5095143;28;20028;-61
2023/09/22 00:22:11;;;;;;;8.88;6.97;;;;;;;13.13;100.00;99783.34;5094984;28;20082;-60
2023/09/22 00:24:36;;;;;;;9.95;6.60;;;;;;;13.17;100.00;99793.88;5094765;28;20067;-62
2023/09/22 00:27:01;;;;;;;10.73;6.90;;;;;;;13.15;100.00;99784.19;5095061;28;20482;-62
2023/09/22 00:29:27;;;;;;;11.95;7.05;;;;;;;13.10;100.00;99778.94;5093669;28;20039;-62
2023/09/22 00:31:52;;;;;;;10.90;7.43;;;;;;;13.04;100.00;99781.72;5094886;28;20028;-62
2023/09/22 00:34:17;;;;;;;9.13;6.20;;;;;;;13.01;100.00;99792.34;5093604;28;20063;-62
2023/09/22 00:36:43;;;;;;;8.80;6.88;;;;;;;12.91;100.00;99799.59;5095082;28;20485;-61
2023/09/22 00:39:09;;;;;;;10.68;6.63;;;;;;;12.88;100.00;99796.09;5094470;28;20036;-62
2023/09/22 00:41:34;;;;;;;10.27;6.13;;;;;;;12.87;100.00;99802.31;5094909;28;20027;-61
2023/09/22 00:44:00;;;;;;;9.60;6.68;;;;;;;12.85;100.00;99804.09;5094861;28;20084;-62
2023/09/22 00:46:26;;;;;;;9.65;6.30;;;;;;;12.82;100.00;99794.44;5094575;28;20020;-61
2023/09/22 00:48:53;;;;;;;9.65;6.00;;;;;;;12.81;100.00;99790.03;5093260;28;20474;-60
2023/09/22 00:51:19;;;;;;;10.90;7.05;;;;;;;12.85;100.00;99801.44;5094764;28;20024;-62
2023/09/22 00:53:47;;;;;;;11.30;7.03;;;;;;;12.85;100.00;99782.88;5094290;28;20046;-63
2023/09/22 00:56:15;;;;;;;11.20;6.75;;;;;;;12.87;100.00;99776.69;5094319;28;20406;-62
2023/09/22 00:58:41;;;;;;;10.57;6.85;;;;;;;12.88;100.00;99774.91;5093758;28;20024;-63
2023/09/22 01:01:06;;;;;;;13.88;7.28;;;;;;;12.87;100.00;99778.47;5093031;28;20034;-61
2023/09/22 01:03:32;;;;;;;12.13;6.95;;;;;;;12.90;100.00;99778.41;5094192;28;20025;-62
2023/09/22 01:05:57;;;;;;;13.05;7.72;;;;;;;12.85;100.00;99781.13;5094453;28;20034;-62
2023/09/22 01:08:23;;;;;;;12.20;7.35;;;;;;;12.85;100.00;99783.78;5094259;28;20019;-62
2023/09/22 01:10:49;;;;;;;13.52;7.57;;;;;;;12.83;100.00;99790.00;5094303;28;20060;-62
2023/09/22 01:13:15;;;;;;;14.95;7.93;;;;;;;12.80;100.00;99793.56;5093950;28;20116;-62
2023/09/22 01:15:41;;;;;;;12.23;7.88;;;;;;;12.79;100.00;99778.56;5093775;28;20055;-60
2023/09/22 01:18:07;;;;;;;13.43;8.00;;;;;;;12.75;100.00;99785.69;5094030;28;20031;-61
2023/09/22 01:20:43;;;;;;;13.77;8.05;;;;;;;12.66;100.00;99777.00;5094224;28;20382;-62
2023/09/22 01:23:09;;;;;;;11.05;7.60;;;;;;;12.66;100.00;99785.81;5094169;28;20074;-61
2023/09/22 01:25:36;;;;;;;16.92;7.97;;;;;;;12.68;100.00;99783.19;5093602;28;20039;-61
2023/09/22 01:28:02;;;;;;;13.45;8.32;;;;;;;12.63;100.00;99785.00;5094079;28;20056;-61
2023/09/22 01:30:27;;;;;;;11.25;7.63;;;;;;;12.60;100.00;99780.63;5093736;28;20059;-61
2023/09/22 01:32:52;;;;;;;15.02;8.30;;;;;;;12.60;100.00;99779.75;5093737;28;20070;-62
2023/09/22 01:35:18;;;;;;;14.05;8.35;;;;;;;12.59;100.00;99783.28;5092404;28;20486;-62
2023/09/22 01:38:00;;;;;;;13.20;8.35;;;;;;;12.59;100.00;99770.03;5093854;28;20047;-62
2023/09/22 01:40:25;;;;;;;16.50;8.95;;;;;;;12.56;100.00;99772.75;5093574;28;20031;-62
2023/09/22 01:42:50;;;;;;;13.52;8.40;;;;;;;12.57;100.00;99771.84;5093617;28;20024;-61
2023/09/22 01:45:16;;;;;;;15.10;8.45;;;;;;;12.53;100.00;99774.53;5093505;28;20058;-62
2023/09/22 01:47:41;;;;;;;13.77;8.73;;;;;;;12.53;100.00;99777.19;5093482;28;20028;-62
2023/09/22 01:50:08;;;;;;;16.40;8.88;;;;;;;12.57;100.00;99771.84;5093506;28;20363;-62
2023/09/22 01:52:34;;;;;;;18.00;8.55;;;;;;;12.62;100.00;99776.16;5093377;28;20501;-62
2023/09/22 01:54:59;;;;;;;15.13;8.10;;;;;;;12.63;100.00;99780.56;5093094;28;20059;-62
2023/09/22 01:57:25;;;;;;;17.67;8.93;;;;;;;12.60;100.00;99793.00;5093380;28;20131;-62
2023/09/22 01:59:50;;;;;;;13.23;8.57;;;;;;;12.56;100.00;99786.88;5093378;28;20095;-61
2023/09/22 02:02:15;;;;;;;14.02;8.07;;;;;;;12.60;100.00;99787.72;5092108;28;20024;-61
2023/09/22 02:04:41;;;;;;;15.25;8.77;;;;;;;12.64;100.00;99781.47;5093323;28;20393;-62
2023/09/22 02:07:07;;;;;;;13.70;8.90;;;;;;;12.74;100.00;99791.03;5093218;28;20117;-62
2023/09/22 02:09:33;;;;;;;13.48;8.90;;;;;;;12.76;100.00;99778.59;5093167;28;20058;-61
2023/09/22 02:11:59;;;;;;;14.15;8.40;;;;;;;12.84;100.00;99778.50;5093506;28;20119;-62
2023/09/22 02:14:24;;;;;;;12.75;8.10;;;;;;;12.87;100.00;99774.03;5092959;28;20042;-61
2023/09/22 02:16:50;;;;;;;14.90;8.18;;;;;;;12.89;100.00;99782.84;5092955;28;20054;-61
2023/09/22 02:19:15;;;;;;;15.02;8.18;;;;;;;12.89;100.00;99782.84;5093019;28;20039;-62
2023/09/22 02:21:41;;;;;;;12.70;7.78;;;;;;;12.90;100.00;99787.25;5093105;28;20052;-61
2023/09/22 02:24:06;;;;;;;13.40;8.07;;;;;;;12.92;100.00;99782.78;5093207;28;20458;-60
2023/09/22 02:26:32;;;;;;;13.95;8.90;;;;;;;12.91;100.00;99783.69;5092849;28;20034;-61
2023/09/22 02:28:57;;;;;;;14.80;8.10;;;;;;;12.88;100.00;99789.03;5091875;28;20036;-62
2023/09/22 02:31:23;;;;;;;14.35;7.60;;;;;;;12.90;100.00;99787.25;5093055;28;20111;-62
2023/09/22 02:33:49;;;;;;;20.27;8.70;;;;;;;12.87;100.00;99792.59;5093260;28;20020;-62
2023/09/22 02:36:16;;;;;;;14.07;8.52;;;;;;;12.83;100.00;99792.66;5093040;28;20036;-62
2023/09/22 02:38:42;;;;;;;16.10;8.40;;;;;;;12.84;100.00;99781.16;5093071;28;20020;-61
2023/09/22 02:41:08;;;;;;;16.95;8.48;;;;;;;12.87;100.00;99781.97;5092814;28;20039;-61
2023/09/22 02:43:34;;;;;;;12.80;7.78;;;;;;;12.91;100.00;99782.81;5093167;28;20036;-62
2023/09/22 02:46:03;;;;;;;15.88;8.35;;;;;;;12.93;100.00;99781.91;5092834;28;20024;-61
2023/09/22 02:48:29;;;;;;;13.77;8.52;;;;;;;12.99;100.00;99783.56;5093098;28;20032;-62
2023/09/22 02:50:54;;;;;;;13.80;7.93;;;;;;;13.01;100.00;99779.97;5092796;28;20029;-62
2023/09/22 02:53:19;;;;;;;15.32;8.32;;;;;;;12.99;100.00;99791.53;5092743;28;20114;-61
2023/09/22 02:55:45;;;;;;;16.05;8.05;;;;;;;12.92;100.00;99787.22;5092656;28;20042;-61
2023/09/22 02:58:10;;;;;;;18.35;8.98;;;;;;;12.89;100.00;99787.25;5092711;28;20024;-63
2023/09/22 03:00:36;;;;;;;19.17;8.35;;;;;;;12.87;100.00;99781.09;5091441;28;20031;-62
2023/09/22 03:03:01;;;;;;;12.52;8.20;;;;;;;12.85;100.00;99780.25;5091479;28;20574;-63
2023/09/22 03:05:27;;;;;;;14.63;7.78;;;;;;;12.88;100.00;99785.50;5092667;28;20082;-62
2023/09/22 03:07:52;;;;;;;12.82;7.90;;;;;;;12.91;100.00;99783.69;5092655;28;20084;-63
2023/09/22 03:10:18;;;;;;;16.83;7.75;;;;;;;12.92;100.00;99782.78;5092881;28;20060;-61
2023/09/22 03:12:43;;;;;;;13.48;8.00;;;;;;;12.93;100.00;99781.91;5092861;28;20458;-60
2023/09/22 03:15:09;;;;;;;15.35;8.15;;;;;;;12.92;100.00;99781.91;5092383;28;20444;-61
2023/09/22 03:17:39;;;;;;;14.75;7.88;;;;;;;12.86;100.00;99787.31;5092782;28;20055;-61
2023/09/22 03:20:12;;;;;;;13.13;7.50;;;;;;;12.82;100.00;99791.78;5092768;28;20032;-62
2023/09/22 03:22:38;;;;;;;15.02;7.32;;;;;;;12.81;100.00;99786.53;5094779;28;20024;-63
2023/09/22 03:25:04;;;;;;;15.88;7.78;;;;;;;12.84;100.00;99794.41;5095924;28;20073;-61
2023/09/22 03:27:36;;;;;;;12.35;7.45;;;;;;;12.76;100.00;99783.91;5096075;28;20035;-61
2023/09/22 03:30:03;;;;;;;11.57;6.95;;;;;;;12.77;100.00;99788.34;5096379;28;20111;-62
2023/09/22 03:32:29;;;;;;;16.25;7.47;;;;;;;12.76;100.00;99789.22;5096057;28;20025;-62
2023/09/22 03:34:57;;;;;;;14.30;6.60;;;;;;;12.75;100.00;99791.00;5095866;28;20032;-61
2023/09/22 03:37:27;;;;;;;14.32;6.78;;;;;;;12.75;100.00;99780.38;5096137;28;20043;-61
2023/09/22 03:39:52;;;;;;;12.57;6.68;;;;;;;12.79;100.00;99787.41;5094595;28;20036;-62
2023/09/22 03:42:18;;;;;;;13.05;7.35;;;;;;;12.77;100.00;99793.63;5095958;28;20024;-62
2023/09/22 03:44:43;;;;;;;12.57;6.75;;;;;;;12.79;100.00;99794.47;5096093;28;20452;-61
2023/09/22 03:47:08;;;;;;;12.63;6.35;;;;;;;12.77;100.00;99801.59;5094910;28;20162;-61
2023/09/22 03:49:34;;;;;;;11.80;6.60;;;;;;;12.76;100.00;99798.06;5077421;28;20082;-61
2023/09/22 03:51:59;;;;;;;12.07;6.03;;;;;;;12.78;100.00;99793.59;5095904;28;20107;-62
2023/09/22 03:54:24;;;;;;;10.30;6.28;;;;;;;12.82;100.00;99802.38;5095317;28;20469;-61
2023/09/22 03:56:50;;;;;;;9.23;5.72;;;;;;;12.84;100.00;99799.69;5095986;28;20107;-61
2023/09/22 03:59:16;;;;;;;8.80;6.20;;;;;;;12.81;100.00;99800.66;5095794;28;20034;-63
2023/09/22 04:01:42;;;;;;;8.95;5.68;;;;;;;12.82;100.00;99798.88;5095516;28;20148;-61
2023/09/22 04:04:07;;;;;;;11.57;5.40;;;;;;;12.78;100.00;99804.22;5094129;28;20028;-61
2023/09/22 04:06:33;;;;;;;12.75;5.70;;;;;;;12.77;100.00;99794.50;5094133;28;20080;-61
2023/09/22 04:08:58;;;;;;;10.27;5.90;;;;;;;12.78;100.00;99809.50;5095352;28;20047;-62
2023/09/22 04:11:24;;;;;;;9.07;5.13;;;;;;;12.76;100.00;99805.13;5095189;28;20080;-61
2023/09/22 04:13:49;;;;;;;9.15;5.45;;;;;;;12.75;100.00;99811.31;5093977;28;20154;-63
2023/09/22 04:16:15;;;;;;;9.43;5.30;;;;;;;12.82;100.00;99806.81;5094777;28;20532;-60
2023/09/22 04:18:40;;;;;;;11.23;4.80;;;;;;;12.78;100.00;99805.97;5095442;28;20153;-63
2023/09/22 04:21:07;;;;;;;7.93;4.63;;;;;;;12.81;100.00;99805.06;5095380;28;20351;-62
2023/09/22 04:23:36;;;;;;;6.50;4.70;;;;;;;12.84;100.00;99808.53;5095114;28;20028;-61
2023/09/22 04:26:09;;;;;;;6.43;4.57;;;;;;;12.86;100.00;99816.47;5093449;28;20078;-62
2023/09/22 04:28:36;;;;;;;8.80;4.80;;;;;;;12.87;100.00;99818.22;5095035;28;20388;-61
2023/09/22 04:31:01;;;;;;;10.57;4.88;;;;;;;12.84;100.00;99816.47;5094879;28;20032;-62
2023/09/22 04:33:27;;;;;;;10.55;4.80;;;;;;;12.84;100.00;99819.13;5094881;28;20032;-62
2023/09/22 04:35:52;;;;;;;8.98;4.85;;;;;;;12.81;100.00;99813.91;5094751;28;20028;-61
2023/09/22 04:38:18;;;;;;;9.43;4.70;;;;;;;12.79;100.00;99813.91;5094986;28;20024;-61
2023/09/22 04:40:44;;;;;;;11.80;4.95;;;;;;;12.78;100.00;99817.47;5094959;28;20032;-63
2023/09/22 04:43:12;;;;;;;8.38;4.55;;;;;;;12.78;100.00;99819.25;5094775;28;20028;-62
2023/09/22 04:45:40;;;;;;;8.15;4.57;;;;;;;12.75;100.00;99816.63;5094926;28;20455;-61
2023/09/22 04:48:09;;;;;;;8.68;4.70;;;;;;;12.72;100.00;99811.38;5094892;28;20366;-60
2023/09/22 04:50:36;;;;;;;9.27;4.40;;;;;;;12.68;100.00;99807.91;5094577;28;20024;-62
2023/09/22 04:53:02;;;;;;;9.55;4.35;;;;;;;12.66;100.00;99808.81;5094633;28;20020;-61
2023/09/22 04:55:31;;;;;;;7.05;4.15;;;;;;;12.61;100.00;99816.81;5094070;28;20366;-62
2023/09/22 04:57:56;;;;;;;8.50;3.92;;;;;;;12.57;100.00;99812.47;5094403;28;20060;-61
2023/09/22 05:00:24;;;;;;;7.43;3.95;;;;;;;12.56;100.00;99810.72;5094436;28;20063;-62
2023/09/22 05:02:52;;;;;;;7.35;3.90;;;;;;;12.52;100.00;99817.84;5094283;28;20024;-61
2023/09/22 05:05:18;;;;;;;7.75;3.95;;;;;;;12.51;100.00;99812.56;5094237;28;20043;-61
2023/09/22 05:07:44;;;;;;;7.35;3.38;;;;;;;12.48;100.00;99817.91;5094175;28;20040;-62
2023/09/22 05:10:10;;;;;;;6.75;3.53;;;;;;;12.46;100.00;99823.22;5094038;28;20493;-61
2023/09/22 05:12:35;;;;;;;9.82;3.42;;;;;;;12.48;100.00;99831.16;5094115;28;20055;-63
2023/09/22 05:15:02;;;;;;;6.97;3.75;;;;;;;12.48;100.00;99836.44;5094194;28;20386;-62
2023/09/22 05:17:28;;;;;;;9.85;3.22;;;;;;;12.43;100.00;99827.69;5094338;28;20062;-61
2023/09/22 05:19:53;;;;;;;4.95;3.40;;;;;;;12.45;100.00;99842.66;5094228;28;20036;-60
2023/09/22 05:22:20;;;;;;;5.78;3.40;;;;;;;12.43;100.00;99839.16;5094277;28;20486;-62
2023/09/22 05:24:46;;;;;;;5.97;3.17;;;;;;;12.41;100.00;99843.59;5093334;28;20047;-61
2023/09/22 05:27:11;;;;;;;8.85;3.40;;;;;;;12.39;100.00;99852.47;5093408;28;20028;-61
2023/09/22 05:29:37;;;;;;;8.48;3.47;;;;;;;12.40;100.00;99846.25;5093607;28;20024;-62
2023/09/22 05:32:03;;;;;;;6.10;3.10;;;;;;;12.43;100.00;99849.75;5093202;28;20020;-63
2023/09/22 05:34:28;;;;;;;5.63;3.13;;;;;;;12.44;100.00;99850.63;5093187;28;20028;-62
2023/09/22 05:36:54;;;;;;;10.02;3.53;;;;;;;12.43;100.00;99851.53;5093233;28;20055;-63
2023/09/22 05:39:20;;;;;;;8.73;3.10;;;;;;;12.43;100.00;99854.19;5093246;28;20039;-62
2023/09/22 05:41:49;;;;;;;4.25;3.00;;;;;;;12.43;100.00;99860.34;5092985;28;20024;-62
2023/09/22 05:44:16;;;;;;;6.80;3.05;;;;;;;12.43;100.00;99863.00;5092783;28;20094;-62
2023/09/22 05:46:42;;;;;;;8.30;3.30;;;;;;;12.39;100.00;99865.72;5093288;28;20113;-62
2023/09/22 05:49:07;;;;;;;5.38;2.85;;;;;;;12.40;100.00;99878.06;5093150;28;20032;-61
2023/09/22 05:51:34;;;;;;;4.82;2.90;;;;;;;12.41;100.00;99882.44;5093040;28;20028;-61
2023/09/22 05:53:59;;;;;;;5.30;3.03;;;;;;;12.45;100.00;99878.88;5092653;28;20036;-62
2023/09/22 05:56:25;;;;;;;8.75;3.22;;;;;;;12.47;100.00;99870.03;5092926;28;20069;-62
2023/09/22 05:58:51;;;;;;;9.60;3.30;;;;;;;12.52;100.00;99881.44;5092857;28;20036;-61
2023/09/22 06:01:17;;;;;;;5.60;2.90;;;;;;;12.57;100.00;99875.19;5091528;28;20020;-62
2023/09/22 06:03:44;;;;;;;6.57;2.90;;;;;;;12.63;100.00;99875.97;5092898;28;20028;-63
2023/09/22 06:06:12;;;;;;;7.40;3.00;;;;;;;12.71;100.00;99883.84;5093093;28;20354;-62
2023/09/22 06:08:43;;;;;;;7.00;3.08;;;;;;;12.78;100.00;99893.47;5092850;28;20103;-61
2023/09/22 06:11:09;;;;;;;7.63;2.70;;;;;;;12.84;100.00;99893.38;5092965;28;20101;-62
2023/09/22 06:13:35;;;;;;;6.85;3.00;;;;;;;12.93;100.00;99895.91;5092672;28;20032;-61
2023/09/22 06:16:01;;;;;;;7.75;2.88;;;;;;;13.01;100.00;99901.09;5092297;28;20100;-61
2023/09/22 06:18:27;;;;;;;8.00;2.90;;;;;;;13.01;100.00;99898.44;5093012;28;20020;-61
2023/09/22 06:20:56;;;;;;;5.38;2.92;;;;;;;13.10;100.00;99908.03;5091320;28;20427;-62
2023/09/22 06:23:23;;;;;;;6.18;2.60;;;;;;;13.17;100.00;99901.75;5092694;28;20422;-62
2023/09/22 06:25:50;;;;;;;6.05;2.50;;;;;;;13.25;100.00;99905.19;5092436;28;20059;-62
2023/09/22 06:28:16;;;;;;;3.83;2.40;;;;;;;13.34;100.00;99904.19;5092662;28;20544;-62
2023/09/22 06:30:42;;;;;;;4.68;2.47;;;;;;;13.45;100.00;99907.56;5092499;28;20027;-61
2023/09/22 06:33:07;;;;;;;7.32;2.85;;;;;;;13.55;100.00;99924.19;5092852;28;20028;-61
2023/09/22 06:35:33;;;;;;;6.90;2.60;;;;;;;13.64;100.00;99916.06;5092522;28;20470;-62
2023/09/22 06:37:59;;;;;;;5.30;2.60;;;;;;;13.72;100.00;99919.47;5092742;28;20054;-62
2023/09/22 06:40:24;;;;;;;4.50;2.33;;;;;;;13.81;100.00;99911.34;5091092;28;20520;-61
2023/09/22 06:42:50;;;;;;;5.63;2.50;;;;;;;13.93;100.00;99911.16;5092409;28;20424;-63
2023/09/22 06:45:16;;;;;;;7.18;2.58;;;;;;;14.00;100.00;99914.53;5092551;28;20056;-62
2023/09/22 06:47:42;;;;;;;6.82;2.60;;;;;;;14.06;100.00;99921.56;5092472;28;20027;-62
2023/09/22 06:50:08;;;;;;;7.25;2.80;;;;;;;14.14;100.00;99933.78;5092499;28;20024;-60
2023/09/22 06:52:40;;;;;;;5.68;2.70;;;;;;;14.17;100.00;99927.53;5092385;28;20486;-62
2023/09/22 06:55:08;;;;;;;8.13;2.60;;;;;;;14.24;100.00;99921.19;5092432;28;20044;-62
2023/09/22 06:57:36;;;;;;;7.45;2.60;;;;;;;14.31;100.00;99928.16;5094545;28;20032;-61
2023/09/22 07:00:15;;;;;;;4.32;2.42;;;;;;;14.41;100.00;99929.72;5096343;28;20521;-61
2023/09/22 07:02:46;;;;;;;6.85;3.00;;;;;;;14.50;100.00;99929.56;5096488;28;20092;-61
2023/09/22 07:05:12;;;;;;;5.53;2.53;;;;;;;14.61;99.91;99940.00;5096527;28;20130;-60
2023/09/22 07:07:38;;;;;;;4.68;2.70;;;;;;;14.66;99.26;99931.94;5096111;28;20084;-62
2023/09/22 07:10:07;;;;;;;7.57;2.42;;;;;;;14.74;98.73;99930.84;5095850;28;20127;-62
2023/09/22 07:12:32;;;;;;;5.18;2.40;;;;;;;14.89;97.62;99934.09;5096194;28;20046;-61
2023/09/22 07:14:58;;;;;;;6.05;2.40;;;;;;;14.99;96.12;99935.66;5095795;28;20382;-62
2023/09/22 07:17:23;;;;;;;5.82;2.42;;;;;;;15.00;96.18;99948.06;5096054;28;20056;-62
2023/09/22 07:19:48;;;;;;;5.53;2.30;;;;;;;15.08;95.66;99935.44;5095930;28;20024;-61
2023/09/22 07:22:14;;;;;;;7.72;2.40;;;;;;;15.23;95.94;99942.19;5096112;28;20035;-61
2023/09/22 07:24:40;;;;;;;5.85;2.47;;;;;;;15.43;94.81;99945.28;5095805;28;20073;-62
2023/09/22 07:27:06;;;;;;;5.00;2.05;;;;;;;15.48;91.71;99955.81;5095878;28;20454;-62
2023/09/22 07:29:32;;;;;;;5.72;2.30;;;;;;;15.52;91.99;99954.84;5095791;28;20024;-61
2023/09/22 07:31:57;;;;;;;8.23;2.30;;;;;;;15.64;91.83;99951.03;5095880;28;20381;-62
2023/09/22 07:34:23;;;;;;;5.05;2.40;;;;;;;15.72;90.65;99955.28;5095340;28;20052;-62
2023/09/22 07:36:49;;;;;;;3.28;2.10;;;;;;;15.94;90.91;99963.59;5095173;28;20024;-61
2023/09/22 07:39:14;;;;;;;4.38;2.08;;;;;;;16.06;87.25;99970.41;5095615;28;20054;-60
2023/09/22 07:41:39;;;;;;;3.60;2.10;;;;;;;15.94;87.11;99974.25;5095714;28;20024;-61
2023/09/22 07:44:05;;;;;;;4.47;2.30;;;;;;;15.90;86.15;99980.56;5095528;28;20462;-62
2023/09/22 07:46:31;;;;;;;6.22;1.77;;;;;;;15.99;85.74;99987.47;5095509;28;20082;-62
2023/09/22 07:48:57;;;;;;;5.25;2.10;;;;;;;16.16;86.63;99987.03;5095502;28;20486;-62
2023/09/22 07:51:22;;;;;;;2.65;1.80;;;;;;;16.23;84.35;99993.94;5095458;28;20028;-61
2023/09/22 07:53:48;;;;;;;3.65;1.88;;;;;;;16.34;84.47;99994.53;5095355;28;20038;-61
2023/09/22 07:56:16;;;;;;;5.68;1.90;;;;;;;16.47;82.56;99989.75;5095019;28;20028;-62
2023/09/22 07:58:41;;;;;;;3.60;1.90;;;;;;;16.70;81.59;99984.69;5095244;28;20118;-61
2023/09/22 08:01:12;;;;;;;5.53;1.80;;;;;;;16.99;81.77;99985.66;5095293;28;20116;-61
2023/09/22 08:03:38;;;;;;;3.30;1.70;;;;;;;17.12;78.16;99983.50;5093976;28;20031;-62
2023/09/22 08:06:05;;;;;;;3.80;1.73;;;;;;;17.25;79.89;99987.53;5095164;28;20028;-62
2023/09/22 08:08:31;;;;;;;4.80;1.80;;;;;;;17.41;78.26;99990.63;5093308;28;20057;-61
2023/09/22 08:10:58;;;;;;;8.30;1.92;;;;;;;17.42;76.54;100000.38;5095024;28;20084;-62
2023/09/22 08:13:24;;;;;;;5.28;1.52;;;;;;;17.39;75.14;99992.47;5094930;28;20056;-61
2023/09/22 08:15:49;;;;;;;3.38;1.58;;;;;;;17.48;76.05;99997.53;5094906;28;20085;-62
2023/09/22 08:18:14;;;;;;;4.30;1.80;;;;;;;17.32;75.02;99991.78;5093674;28;20538;-61
2023/09/22 08:20:41;;;;;;;3.15;1.55;;;;;;;17.40;74.53;100005.78;5095141;28;20028;-62
2023/09/22 08:23:07;;;;;;;3.42;1.77;;;;;;;17.26;73.88;100016.00;5095063;28;20036;-62
2023/09/22 08:25:32;;;;;;;2.80;1.60;;;;;;;17.17;74.90;100009.16;5093187;28;20024;-63
2023/09/22 08:27:58;;;;;;;3.13;1.65;;;;;;;17.09;75.74;100011.19;5094676;28;20058;-61
2023/09/22 08:30:25;;;;;;;3.05;1.52;;;;;;;17.21;75.79;100004.56;5094933;28;20031;-62
2023/09/22 08:32:50;;;;;;;4.05;1.90;;;;;;;17.27;75.58;100005.28;5094598;28;20024;-62
2023/09/22 08:35:16;;;;;;;3.67;1.95;;;;;;;17.20;74.86;100008.16;5094303;28;20035;-62
2023/09/22 08:37:42;;;;;;;4.55;1.70;;;;;;;17.13;74.83;100010.16;5094710;28;20146;-62
2023/09/22 08:40:15;;;;;;;2.72;1.50;;;;;;;17.07;74.13;100037.03;5094169;28;20035;-61
2023/09/22 08:42:40;;;;;;;;;;;;;;;17.03;74.96;100014.88;5093584;28;20057;-62
2023/09/22 08:45:06;;;;;;;3.60;1.70;;;;;;;16.90;76.08;100016.16;5092964;28;19912;-63
2023/09/22 08:47:38;;;;;;;2.45;1.58;;;;;;;16.86;75.25;100029.63;5094352;28;20387;-62
2023/09/22 08:50:14;;;;;;;3.33;1.85;;;;;;;16.99;74.50;100017.69;5094645;28;20138;-61
2023/09/22 08:52:42;;;;;;;4.68;1.95;;;;;;;17.18;74.13;100023.38;5094480;28;20032;-61
2023/09/22 08:55:10;;;;;;;4.65;1.70;;;;;;;17.46;74.60;100020.72;5093962;28;20023;-62
2023/09/22 08:57:37;;;;;;;3.45;1.63;;;;;;;17.43;73.14;100019.03;5094244;28;20028;-61
2023/09/22 09:00:10;;;;;;;2.35;1.48;;;;;;;17.19;73.62;100028.66;5094186;28;20409;-61
2023/09/22 09:02:36;;;;;;;4.10;1.73;;;;;;;16.90;73.01;100023.28;5093896;28;20032;-63
2023/09/22 09:05:01;;;;;;;3.05;1.75;;;;;;;16.82;73.22;100034.16;5094074;28;20371;-61
2023/09/22 09:07:26;;;;;;;4.97;1.65;;;;;;;16.80;72.61;100038.69;5093811;28;20024;-60
2023/09/22 09:09:55;;;;;;;2.38;1.50;;;;;;;16.65;73.40;100039.06;5094149;28;20025;-61
2023/09/22 09:12:21;;;;;;;1.67;1.52;;;;;;;16.54;74.40;100031.34;5093724;28;20047;-61
2023/09/22 09:14:49;;;;;;;4.25;1.60;;;;;;;16.52;74.31;100036.72;5093684;28;20117;-63
2023/09/22 09:17:18;;;;;;;4.90;1.73;;;;;;;16.34;74.81;100050.53;5093380;28;20454;-62
2023/09/22 09:19:55;;;;;;;3.28;1.85;;;;;;;16.25;75.13;100042.78;5092792;28;20028;-62
2023/09/22 09:22:21;;;;;;;3.38;1.60;;;;;;;16.46;75.17;100046.69;5092597;28;20437;-61
2023/09/22 09:24:46;;;;;;;4.63;1.63;;;;;;;16.95;74.23;100040.03;5093552;28;20111;-63
2023/09/22 09:27:21;;;;;;;3.70;1.60;;;;;;;17.40;73.48;100035.16;5093537;28;20016;-62
2023/09/22 09:29:50;;;;;;;2.03;1.42;;;;;;;17.96;72.22;100047.69;5093337;28;20028;-61
2023/09/22 09:32:26;;;;;;;2.75;1.60;;;;;;;17.88;69.67;100037.25;5093191;28;20098;-62
2023/09/22 09:34:52;;;;;;;2.20;1.50;;;;;;;18.05;70.34;100033.16;5093575;28;20036;-62
2023/09/22 09:37:19;;;;;;;2.70;1.63;;;;;;;18.50;68.46;100039.63;5093193;28;20560;-61
2023/09/22 09:39:49;;;;;;;2.85;1.60;;;;;;;18.99;67.31;100045.94;5093161;28;20039;-61
2023/09/22 09:42:17;;;;;;;2.58;1.40;;;;;;;18.64;64.02;100054.31;5093275;28;20027;-61
2023/09/22 09:44:49;;;;;;;2.88;1.45;;;;;;;18.53;65.00;100050.19;5092110;28;20032;-61
2023/09/22 09:47:22;;;;;;;3.38;1.50;;;;;;;18.79;66.46;100044.91;5093235;28;20035;-62
2023/09/22 09:49:54;;;;;;;2.50;1.40;;;;;;;18.74;63.60;100053.97;5092397;28;20065;-61
2023/09/22 09:52:26;;;;;;;2.60;1.42;;;;;;;18.52;65.90;100042.25;5092954;28;20024;-62
2023/09/22 09:55:02;;;;;;;3.42;1.50;;;;;;;18.33;66.88;100060.75;5092823;28;20032;-62
2023/09/22 09:57:30;;;;;;;3.20;1.58;;;;;;;18.12;65.70;100056.09;5093060;28;20036;-60
2023/09/22 09:59:57;;;;;;;2.90;1.60;;;;;;;18.09;67.09;100050.84;5093036;28;20028;-61
2023/09/22 10:02:24;;;;;;;3.80;1.65;;;;;;;18.00;67.39;100060.91;5092954;28;20024;-60
2023/09/22 10:04:49;;;;;;;3.65;1.60;;;;;;;18.19;68.67;100052.28;5092490;28;20123;-62
2023/09/22 10:07:15;;;;;;;3.65;1.80;;;;;;;18.37;68.22;100057.03;5092707;28;20063;-61
2023/09/22 10:09:41;;;;;;;2.70;1.67;;;;;;;18.45;66.45;100040.69;5092492;28;20023;-61
2023/09/22 10:12:07;;;;;;;2.65;1.45;;;;;;;18.69;64.43;100047.00;5091125;28;20028;-62
2023/09/22 10:14:53;;;;;;;3.63;1.90;;;;;;;18.85;66.30;100042.03;5092447;28;20085;-60
2023/09/22 10:17:21;;;;;;;2.30;1.40;;;;;;;19.10;62.34;100039.28;5092287;28;20040;-60
2023/09/22 10:19:46;;;;;;;2.95;1.70;;;;;;;19.40;61.08;100038.16;5092437;28;20020;-59
2023/09/22 10:22:12;;;;;;;3.65;1.80;;;;;;;19.71;61.79;100047.72;5092634;28;20107;-60
2023/09/22 10:24:38;;;;;;;2.92;1.60;;;;;;;19.85;59.59;100041.78;5092254;28;20470;-62
2023/09/22 10:27:14;;;;;;;2.30;1.45;;;;;;;20.14;59.20;100054.88;5092406;28;20121;-60
2023/09/22 10:29:42;;;;;;;3.47;1.65;;;;;;;20.37;57.99;100035.13;5092724;28;20020;-61
2023/09/22 10:32:23;;;;;;;5.00;1.73;;;;;;;20.68;58.28;100034.72;5095668;28;20028;-60
2023/09/22 10:35:06;;;;;;;3.60;1.77;;;;;;;21.01;58.20;100029.66;5096981;28;20061;-61
2023/09/22 10:37:35;;;;;;;4.90;1.65;;;;;;;21.13;57.24;100044.34;5096203;28;20056;-61
2023/09/22 10:40:12;;;;;;;4.47;1.65;;;;;;;21.06;56.21;100037.50;5078320;28;20051;-60
2023/09/22 10:42:42;;;;;;;4.25;1.50;;;;;;;21.18;56.57;100025.31;5084624;28;20372;-61
2023/09/22 10:45:08;;;;;;;5.50;1.63;;;;;;;21.11;53.54;100039.97;5103376;28;20440;-59
2023/09/22 10:47:44;;;;;;;3.42;1.70;;;;;;;21.06;56.36;100034.81;5105434;28;20102;-59
2023/09/22 10:50:15;;;;;;;2.92;1.40;;;;;;;20.94;54.75;100044.31;5102439;28;20050;-60
2023/09/22 10:52:55;;;;;;;6.13;1.55;;;;;;;20.90;54.49;100037.34;5105294;28;20029;-61
2023/09/22 10:55:35;;;;;;;2.63;1.48;;;;;;;20.94;55.17;100028.22;5106786;28;20034;-61
2023/09/22 10:58:05;;;;;;;3.70;1.65;;;;;;;21.09;55.31;100034.69;5112728;28;20020;-62
2023/09/22 11:00:32;;;;;;;3.65;1.85;;;;;;;21.17;55.65;100021.78;5101797;28;20024;-61
2023/09/22 11:03:05;;;;;;;2.70;1.58;;;;;;;21.01;54.68;100036.84;5108450;28;20032;-62
2023/09/22 11:05:30;;;;;;;3.60;1.83;;;;;;;20.90;54.03;100031.97;5116663;27;20046;-61
2023/09/22 11:07:56;;;;;;;2.33;1.50;;;;;;;20.74;54.06;100026.41;5103569;28;20036;-60
2023/09/22 11:10:22;;;;;;;2.38;1.50;;;;;;;20.61;53.57;100030.56;5110358;28;20020;-59
2023/09/22 11:12:49;;;;;;;3.88;1.73;;;;;;;20.58;55.71;100036.06;5113171;28;20020;-60
2023/09/22 11:15:15;;;;;;;5.18;1.70;;;;;;;20.58;55.73;100038.75;5105595;28;20046;-61
2023/09/22 11:17:42;;;;;;;2.17;1.52;;;;;;;20.95;56.06;100034.44;5105875;28;20043;-60
2023/09/22 11:20:18;;;;;;;3.40;1.65;;;;;;;21.36;55.72;100034.38;5103020;28;20023;-60
2023/09/22 11:22:44;;;;;;;3.97;2.00;;;;;;;21.43;53.88;100031.34;5101813;28;20059;-62